Augusta Township, Michigan
Current Conditions -  °F | °C
As of 11:53 PM on Sunday 19 Oct 2014 (Local Time) from KARB Reporting Station
Broken Clouds Broken Clouds  
Wind Chill:   Ceiling: 12000
Heat Index:   Visibility: 10mi
Dew Point:   Wind: 3mph
Humidity: 71%   Direction: 200°SSW
Pressure: 29.97"   Gusts: NA
Location:  42.0828°N, 83.683°W
Report Text: KARB 200353Z AUTO 20003KT 10SM FEW095 BKN120 07/02 A2997 RMK AO2 SLP152 T00720022
Loading
Personal Weather Stations






























Interactive Weather Map
Tropical Storm Tracking
New forecast layout! Learn more

10-Day Weather Forecast

Advertisements
Track Severe Weather on mobile